Time;durP1;ratioP1;P1;durP2;ratioP2;P2;SDS_P1;SDS_P2;PMS_P1;PMS_P2;Temp;Humidity;BMP_temperature;BMP_pressure;BME280_temperature;BME280_humidity;BME280_pressure;Samples;Min_cycle;Max_cycle;Signal;HPM_P1;HPM_P2
2021/07/21 00:00:23;;;;;;;1.83;1.67;;;25.80;50.10;;;29.66;33.93;101882.91;5112846;28;20054;-51
2021/07/21 00:02:49;;;;;;;2.13;1.92;;;25.80;50.10;;;29.67;33.98;101879.22;5112838;28;20043;-51
2021/07/21 00:05:17;;;;;;;1.90;1.70;;;25.80;50.10;;;29.64;33.78;101878.63;5112774;28;20059;-50
2021/07/21 00:07:43;;;;;;;2.20;1.80;;;25.80;50.00;;;29.64;34.01;101873.25;5112629;28;20055;-54
2021/07/21 00:10:12;;;;;;;2.00;1.80;;;25.80;50.10;;;29.65;33.89;101872.25;5112878;28;20082;-54
2021/07/21 00:15:25;;;;;;;1.90;1.77;;;25.80;50.10;;;29.64;33.83;101875.94;5112880;28;20479;-51
2021/07/21 00:18:02;;;;;;;2.00;1.88;;;25.80;50.10;;;29.60;34.06;101861.84;5112394;28;20515;-54
2021/07/21 00:20:31;;;;;;;2.70;1.73;;;25.80;50.10;;;29.60;34.10;101869.06;5112552;28;20190;-52
2021/07/21 00:22:58;;;;;;;2.22;1.75;;;25.80;50.10;;;29.59;33.97;101860.16;5112510;28;20039;-52
2021/07/21 00:25:24;;;;;;;2.22;1.90;;;25.80;50.10;;;29.60;34.08;101867.22;5112734;28;20463;-54
2021/07/21 00:27:50;;;;;;;2.53;1.58;;;25.80;50.20;;;29.59;33.92;101861.97;5112468;28;20055;-52
2021/07/21 00:30:19;;;;;;;1.67;1.58;;;25.80;50.20;;;29.59;33.87;101861.97;5112900;28;20051;-54
2021/07/21 00:32:45;;;;;;;2.67;2.17;;;25.80;50.20;;;29.59;34.10;101868.22;5112453;28;20047;-53
2021/07/21 00:35:16;;;;;;;1.70;1.60;;;25.80;50.20;;;29.58;34.06;101869.19;5110967;28;20040;-49
2021/07/21 00:37:42;;;;;;;2.17;1.98;;;25.80;50.20;;;29.58;33.90;101869.19;5114421;28;20132;-52
2021/07/21 00:40:11;;;;;;;1.92;1.60;;;25.80;50.30;;;29.56;33.89;101861.25;5114819;28;20054;-52
2021/07/21 00:42:37;;;;;;;1.98;1.70;;;25.80;50.20;;;29.56;34.08;101866.63;5097498;28;20575;-49
2021/07/21 00:45:05;;;;;;;1.92;1.60;;;25.80;50.30;;;29.55;34.08;101869.44;5097388;28;20043;-49
2021/07/21 00:47:31;;;;;;;2.40;1.73;;;25.80;50.30;;;29.53;34.10;101853.41;5096906;28;20502;-52
2021/07/21 00:49:58;;;;;;;1.98;1.73;;;25.80;50.30;;;29.52;34.01;101861.63;5097099;28;20108;-53
2021/07/21 00:52:23;;;;;;;1.90;1.70;;;25.80;50.30;;;29.55;34.12;101866.75;5115572;28;20052;-50
2021/07/21 00:54:50;;;;;;;1.88;1.75;;;25.80;50.30;;;29.55;34.13;101858.69;5116188;28;20050;-52
2021/07/21 00:57:17;;;;;;;1.90;1.70;;;25.80;50.30;;;29.53;34.14;101860.66;5080309;28;20060;-51
2021/07/21 00:59:44;;;;;;;1.92;1.80;;;25.70;50.30;;;29.53;33.94;101861.50;5097018;28;20040;-53
2021/07/21 01:02:10;;;;;;;2.25;1.80;;;25.70;50.30;;;29.54;33.95;101862.38;5114483;28;20071;-52
2021/07/21 01:04:39;;;;;;;2.10;1.90;;;25.70;50.30;;;29.50;33.93;101858.22;5114790;28;20376;-50
2021/07/21 01:07:07;;;;;;;1.92;1.73;;;25.70;50.30;;;29.52;34.21;101864.31;5097530;28;20460;-54
2021/07/21 01:09:36;;;;;;;2.00;1.80;;;25.70;50.30;;;29.48;34.25;101857.47;5080224;28;20134;-54
2021/07/21 01:12:27;;;;;;;1.90;1.63;;;25.70;50.30;;;29.49;33.85;101859.22;5112154;28;20073;-52
2021/07/21 01:15:36;;;;;;;1.80;1.70;;;25.70;50.30;;;29.49;34.14;101857.34;5112472;28;20062;-47
2021/07/21 01:18:11;;;;;;;2.45;2.00;;;25.70;50.40;;;29.47;34.04;101858.47;5095915;28;20062;-52
2021/07/21 01:21:36;;;;;;;2.10;1.90;;;25.70;50.90;;;29.49;33.98;101868.13;5079764;28;20510;-52
2021/07/21 01:24:25;;;;;;;1.63;1.52;;;25.70;50.40;;;29.46;34.24;101864.84;5115443;28;20054;-54
2021/07/21 01:27:21;;;;;;;2.42;1.77;;;25.70;50.40;;;29.47;34.03;101874.63;5114952;28;20043;-52
2021/07/21 01:29:55;;;;;;;1.90;1.80;;;25.70;50.40;;;29.45;34.10;101863.13;5079844;28;20051;-54
2021/07/21 01:32:27;;;;;;;2.00;1.90;;;25.60;50.40;;;29.44;34.22;101866.81;5114982;28;20479;-52
2021/07/21 01:35:03;;;;;;;2.13;1.52;;;25.70;50.50;;;29.43;34.21;101865.94;5115608;28;20167;-54
2021/07/21 01:37:31;;;;;;;2.00;1.73;;;25.60;50.40;;;29.44;34.12;101859.59;5096714;28;20035;-51
2021/07/21 01:40:03;;;;;;;2.10;1.90;;;25.60;50.40;;;29.41;34.00;101859.84;5096823;28;20056;-55
2021/07/21 01:42:31;;;;;;;2.03;1.83;;;25.60;50.50;;;29.42;34.31;101857.97;5115009;28;20039;-52
2021/07/21 01:44:59;;;;;;;1.95;1.85;;;25.60;50.50;;;29.43;34.10;101865.09;5079640;28;20497;-51
2021/07/21 01:47:28;;;;;;;1.98;1.77;;;25.60;50.50;;;29.41;34.08;101864.38;5078879;28;20059;-54
2021/07/21 01:49:55;;;;;;;1.83;1.65;;;25.60;50.40;;;29.42;34.03;101866.06;5095838;28;20134;-51
2021/07/21 01:52:26;;;;;;;2.15;1.85;;;25.60;50.50;;;29.36;34.08;101857.50;5079951;28;20452;-52
2021/07/21 01:54:57;;;;;;;2.47;2.05;;;25.60;50.50;;;29.41;34.35;101870.59;5114981;28;20130;-51
2021/07/21 01:57:30;;;;;;;2.17;1.98;;;25.60;50.50;;;29.38;34.35;101868.16;5096145;28;20055;-54
2021/07/21 02:00:19;;;;;;;1.77;1.65;;;25.60;50.50;;;29.38;34.43;101866.31;5094235;28;20490;-52
2021/07/21 02:02:52;;;;;;;1.70;1.60;;;25.60;50.50;;;29.37;34.18;101864.63;5096627;28;20047;-50
2021/07/21 02:05:35;;;;;;;1.85;1.65;;;25.60;50.50;;;29.40;34.10;101873.44;5093822;28;20047;-51
2021/07/21 02:08:04;;;;;;;2.00;1.80;;;25.60;50.50;;;29.37;34.37;101870.00;5113054;28;20044;-50
2021/07/21 02:10:32;;;;;;;2.45;2.15;;;25.60;50.60;;;29.36;34.45;101859.34;5094178;28;20075;-52
2021/07/21 02:13:13;;;;;;;1.80;1.60;;;25.60;50.60;;;29.35;34.27;101860.31;5113054;28;20047;-49
2021/07/21 02:16:01;;;;;;;;;;;25.60;50.60;;;29.45;33.95;101866.66;5115192;28;20058;-52
2021/07/21 02:18:29;;;;;;;2.40;1.88;;;25.60;50.60;;;29.38;34.15;101858.22;5079760;28;20368;-52
2021/07/21 02:21:01;;;;;;;1.90;1.70;;;25.60;50.60;;;29.36;34.05;101865.59;5111941;28;20505;-54
2021/07/21 02:23:29;;;;;;;1.80;1.70;;;25.60;50.60;;;29.35;34.35;101863.91;5113218;28;20403;-51
2021/07/21 02:26:17;;;;;;;2.15;1.85;;;25.60;50.60;;;29.34;34.39;101859.47;5074173;28;20474;-53
2021/07/21 02:28:45;;;;;;;2.38;2.00;;;25.60;50.60;;;29.32;34.45;101856.06;5062449;28;20437;-51
2021/07/21 02:31:25;;;;;;;2.13;1.88;;;25.60;50.70;;;29.29;34.15;101850.09;5096219;28;21370;-54
2021/07/21 02:33:56;;;;;;;2.08;1.77;;;25.50;50.60;;;29.32;34.23;101853.38;5096420;28;20069;-49
2021/07/21 02:36:25;;;;;;;2.10;1.90;;;25.50;50.60;;;29.30;34.25;101843.69;5094486;28;20074;-48
2021/07/21 02:38:55;;;;;;;2.10;1.90;;;25.50;50.60;;;29.31;34.28;101853.50;5112665;28;20044;-48
2021/07/21 02:41:21;;;;;;;1.80;1.70;;;25.50;50.60;;;29.32;34.55;101857.88;5095923;28;20048;-51
2021/07/21 02:43:48;;;;;;;1.70;1.60;;;25.50;50.60;;;29.31;34.61;101857.03;5095514;28;20043;-47
2021/07/21 02:46:14;;;;;;;2.38;1.90;;;25.50;50.60;;;29.31;34.32;101848.09;5112413;28;20054;-47
2021/07/21 02:48:47;;;;;;;2.08;1.88;;;25.50;50.60;;;29.28;34.28;101854.59;5113021;28;20039;-46
2021/07/21 02:51:38;;;;;;;2.05;1.75;;;25.50;50.60;;;29.26;34.52;101853.03;5096475;28;20142;-47
2021/07/21 02:54:26;;;;;;;2.10;1.90;;;25.50;50.60;;;29.29;34.17;101860.84;5080068;28;20050;-51
2021/07/21 02:57:18;;;;;;;2.20;2.00;;;25.50;50.70;;;29.26;34.27;101848.47;5096824;28;20480;-50
2021/07/21 02:59:50;;;;;;;1.77;1.67;;;25.50;50.70;;;29.26;34.42;101851.19;5095310;28;20090;-51
2021/07/21 03:02:23;;;;;;;1.67;1.58;;;25.50;50.70;;;29.27;34.34;101855.59;5096322;28;20043;-52
2021/07/21 03:04:54;;;;;;;1.60;1.50;;;25.50;50.70;;;29.26;34.31;101853.88;5095796;28;20039;-51
2021/07/21 03:07:27;;;;;;;2.00;1.80;;;25.50;50.70;;;29.24;34.55;101845.06;5113896;28;20285;-54
2021/07/21 03:09:55;;;;;;;2.72;1.90;;;25.50;50.70;;;29.25;34.54;101852.16;5074961;28;20041;-49
2021/07/21 03:12:25;;;;;;;2.42;2.17;;;25.50;50.70;;;29.24;34.64;101853.16;5095732;28;20052;-54
2021/07/21 03:15:13;;;;;;;1.90;1.80;;;25.50;50.70;;;29.22;34.56;101851.53;5098154;28;20047;-54
2021/07/21 03:17:45;;;;;;;2.00;1.90;;;25.50;50.70;;;29.22;34.47;101852.44;5094160;28;20093;-51
2021/07/21 03:20:16;;;;;;;1.90;1.75;;;25.50;50.80;;;29.21;34.36;101850.69;5095640;28;20052;-53
2021/07/21 03:22:55;;;;;;;;;;;25.50;50.80;;;29.33;34.25;101854.22;5112502;28;20532;-52
2021/07/21 03:25:22;;;;;;;2.35;2.05;;;25.40;50.70;;;29.28;34.44;101849.19;5095125;28;20010;-52
2021/07/21 03:27:54;;;;;;;2.33;2.13;;;25.40;50.70;;;29.26;34.49;101855.72;5094919;28;20051;-50
2021/07/21 03:30:29;;;;;;;2.13;1.92;;;25.50;50.70;;;29.24;34.55;101855.84;5096193;28;20134;-50
2021/07/21 03:33:07;;;;;;;2.15;1.88;;;25.40;50.70;;;29.21;34.62;101852.53;5110761;28;20044;-51
2021/07/21 03:35:40;;;;;;;2.10;1.90;;;25.40;50.70;;;29.23;34.17;101856.81;5094447;28;20083;-50
2021/07/21 03:38:08;;;;;;;1.90;1.73;;;25.40;50.70;;;29.21;34.36;101852.53;5094053;28;20058;-48
2021/07/21 03:40:40;;;;;;;2.00;1.80;;;25.40;50.70;;;29.22;34.44;101857.81;5110894;28;20094;-50
2021/07/21 03:43:16;;;;;;;2.05;1.85;;;25.40;50.70;;;29.18;34.59;101853.63;5078596;28;20091;-49
2021/07/21 03:45:51;;;;;;;2.03;1.83;;;25.40;50.70;;;29.19;34.37;101856.22;5077235;28;20479;-49
2021/07/21 03:48:18;;;;;;;1.90;1.60;;;25.40;50.70;;;29.18;34.46;101862.56;5112482;28;20480;-48
2021/07/21 03:51:04;;;;;;;2.25;2.05;;;25.40;50.80;;;29.19;34.41;101858.91;5112162;28;20489;-47
2021/07/21 03:53:41;;;;;;;2.22;2.03;;;25.40;50.80;;;29.19;34.60;101856.22;5111524;28;20040;-49
2021/07/21 03:56:09;;;;;;;2.10;1.90;;;25.40;50.80;;;29.18;34.74;101862.56;5078141;28;20040;-50
2021/07/21 03:58:49;;;;;;;2.60;2.00;;;25.40;50.80;;;29.22;34.61;101862.31;5096758;28;20048;-49
2021/07/21 04:01:21;;;;;;;;;;;25.40;50.80;;;29.29;34.44;101855.47;5094809;28;20296;-51
2021/07/21 04:03:54;;;;;;;2.10;1.85;;;25.40;50.80;;;29.24;34.27;101857.69;5079085;28;19922;-53
2021/07/21 04:06:23;;;;;;;1.92;1.73;;;25.40;50.80;;;29.21;34.40;101863.31;5110970;28;20059;-53
2021/07/21 04:09:06;;;;;;;2.03;1.83;;;25.40;50.80;;;29.21;34.59;101864.16;5097151;28;20112;-48
2021/07/21 04:11:34;;;;;;;2.20;2.00;;;25.40;50.80;;;29.14;34.65;101854.84;5113805;28;20142;-46
2021/07/21 04:14:08;;;;;;;2.17;1.98;;;25.40;50.80;;;29.13;34.60;101855.81;5098092;28;20104;-52
2021/07/21 04:17:01;;;;;;;2.03;1.92;;;25.40;50.90;;;29.17;34.67;101865.41;5115828;28;20043;-46
2021/07/21 04:19:28;;;;;;;2.35;2.10;;;25.40;50.90;;;29.15;34.49;101861.94;5097813;28;20051;-51
2021/07/21 04:21:56;;;;;;;2.17;1.90;;;25.40;50.90;;;29.14;34.78;101861.09;5080935;28;20047;-46
2021/07/21 04:24:24;;;;;;;4.47;2.08;;;25.40;50.90;;;29.14;34.67;101865.63;5116124;28;20055;-51
2021/07/21 04:26:50;;;;;;;1.90;1.73;;;25.40;50.90;;;29.12;34.74;101857.66;5116119;28;20051;-51
2021/07/21 04:29:25;;;;;;;2.25;2.05;;;25.40;50.90;;;29.14;34.41;101871.00;5114598;28;20399;-48
2021/07/21 04:31:51;;;;;;;1.88;1.77;;;25.40;50.90;;;29.15;34.69;101878.97;5079802;28;20048;-52
2021/07/21 04:34:18;;;;;;;2.25;2.05;;;25.40;50.90;;;29.13;34.41;101870.13;5114701;28;20047;-47
2021/07/21 04:36:47;;;;;;;2.30;1.90;;;25.40;50.90;;;29.13;34.39;101874.69;5098251;28;20047;-53
2021/07/21 04:39:17;;;;;;;2.22;1.80;;;25.40;50.90;;;29.13;34.74;101875.53;5114374;28;20043;-49
2021/07/21 04:42:11;;;;;;;2.20;2.00;;;25.40;50.90;;;29.13;34.48;101871.97;5115620;28;20187;-50
2021/07/21 04:44:41;;;;;;;2.45;2.00;;;25.40;50.90;;;29.12;34.83;101881.91;5097371;28;20087;-48
2021/07/21 04:47:08;;;;;;;2.08;1.88;;;25.40;51.00;;;29.13;34.77;101883.59;5114438;28;20154;-51
2021/07/21 04:49:42;;;;;;;2.15;2.00;;;25.40;50.90;;;29.13;34.73;101888.97;5115759;28;20097;-48
2021/07/21 04:52:14;;;;;;;2.90;2.38;;;25.40;50.90;;;29.12;34.88;101879.22;5097375;28;20074;-51
2021/07/21 04:54:41;;;;;;;2.20;2.03;;;25.40;50.90;;;29.11;34.65;101879.34;5097169;28;20083;-49
2021/07/21 04:57:10;;;;;;;2.08;1.92;;;25.40;50.90;;;29.13;34.77;101888.97;5112984;28;20048;-51
2021/07/21 04:59:44;;;;;;;2.00;1.70;;;25.40;51.00;;;29.12;34.40;101898.06;5096935;28;20487;-47
2021/07/21 05:02:11;;;;;;;2.35;2.15;;;25.40;50.90;;;29.13;34.62;101893.53;5114641;28;20039;-49
2021/07/21 05:04:37;;;;;;;1.90;1.80;;;25.30;50.90;;;29.14;34.61;101904.19;5080429;28;20039;-46
2021/07/21 05:07:28;;;;;;;2.10;1.90;;;25.40;50.90;;;29.12;34.53;101898.06;5101145;28;20047;-52
2021/07/21 05:10:02;;;;;;;2.28;2.08;;;25.40;50.90;;;29.12;34.47;101914.22;5114353;28;20047;-50
2021/07/21 05:12:29;;;;;;;2.00;1.80;;;25.30;50.90;;;29.12;34.42;101911.53;5096872;28;20443;-47
2021/07/21 05:14:57;;;;;;;2.10;1.90;;;25.30;50.90;;;29.11;34.65;101917.03;5114051;28;20039;-48
2021/07/21 05:17:35;;;;;;;2.40;2.20;;;25.40;50.90;;;29.11;34.61;101912.50;5115348;28;20437;-50
2021/07/21 05:20:06;;;;;;;2.00;1.80;;;25.30;50.90;;;29.10;34.57;101910.81;5112035;28;20114;-51
2021/07/21 05:22:36;;;;;;;2.97;1.85;;;25.40;51.00;;;29.13;34.48;101912.38;5095796;28;20047;-50
2021/07/21 05:25:03;;;;;;;2.28;2.08;;;25.30;50.90;;;29.10;34.70;101910.81;5113772;28;20054;-50
2021/07/21 05:27:39;;;;;;;2.28;2.08;;;25.30;50.90;;;29.11;34.81;101914.34;5111040;28;20040;-50
2021/07/21 05:30:07;;;;;;;2.20;2.00;;;25.30;50.90;;;29.10;34.79;101915.31;5111674;28;20083;-52
2021/07/21 05:32:54;;;;;;;2.30;2.10;;;25.30;50.90;;;29.11;34.43;101920.56;5114225;28;20032;-50
2021/07/21 05:35:20;;;;;;;1.80;1.70;;;25.30;50.90;;;29.12;34.71;101921.41;5113983;28;20060;-51
2021/07/21 05:37:55;;;;;;;2.22;2.03;;;25.30;50.90;;;29.12;34.68;101918.72;5114746;28;20493;-52
2021/07/21 05:40:24;;;;;;;2.10;1.90;;;25.30;50.90;;;29.11;34.51;101909.81;5114097;28;20051;-50
2021/07/21 05:43:01;;;;;;;2.80;2.15;;;25.30;50.90;;;29.12;34.72;101922.31;5113741;28;20915;-51
2021/07/21 05:45:33;;;;;;;2.20;2.00;;;25.30;50.90;;;29.10;34.84;101924.28;5096322;28;20074;-53
2021/07/21 05:47:59;;;;;;;2.55;2.35;;;25.30;50.90;;;29.12;34.50;101933.06;5113127;28;20066;-51
2021/07/21 05:50:26;;;;;;;2.33;2.13;;;25.40;51.00;;;29.13;34.57;101926.69;5113198;28;20043;-51
2021/07/21 05:52:58;;;;;;;2.67;2.35;;;25.30;50.90;;;29.13;34.52;101928.53;5097316;28;20063;-52
2021/07/21 05:55:38;;;;;;;2.30;2.10;;;25.30;50.90;;;29.14;34.47;101936.50;5080164;28;20047;-48
2021/07/21 05:58:05;;;;;;;2.45;2.25;;;25.40;50.90;;;29.11;34.40;101928.66;5096026;28;20048;-51
2021/07/21 06:00:31;;;;;;;2.33;2.03;;;25.40;50.90;;;29.12;34.63;101933.06;5112592;28;20108;-46
2021/07/21 06:03:01;;;;;;;2.40;2.00;;;25.40;50.90;;;29.13;34.64;101936.63;5094872;28;20048;-48
2021/07/21 06:05:47;;;;;;;2.50;2.30;;;25.30;50.90;;;29.13;100.00;79230.28;5114629;28;20052;-49
2021/07/21 06:08:39;;;;;;;2.00;1.83;;;25.30;50.90;;;-147.20;100.00;58430.41;5099821;28;20480;-46
2021/07/21 06:11:19;;;;;;;2.42;2.08;;;25.30;50.90;;;-147.20;100.00;58430.41;5113414;28;20105;-48
2021/07/21 06:13:45;;;;;;;2.20;2.00;;;25.30;50.90;;;-147.20;100.00;58430.41;5095929;28;20075;-45
2021/07/21 06:16:13;;;;;;;3.00;2.38;;;25.30;51.00;;;-147.20;100.00;58430.41;5112957;28;20100;-50
2021/07/21 06:18:40;;;;;;;3.42;2.22;;;25.30;50.90;;;-147.20;100.00;58430.41;5114154;28;20128;-48
2021/07/21 06:21:08;;;;;;;2.67;2.20;;;25.30;50.90;;;-147.20;100.00;58430.41;5114222;28;20373;-49
2021/07/21 06:23:38;;;;;;;2.20;1.80;;;25.30;50.90;;;-147.20;100.00;58430.41;5112891;28;20491;-46
2021/07/21 06:26:05;;;;;;;2.42;2.22;;;25.30;50.90;;;-147.20;100.00;58430.41;5113157;28;20402;-45
2021/07/21 06:28:54;;;;;;;2.40;2.20;;;25.30;51.00;;;-147.20;100.00;58430.41;5106182;28;20055;-46
2021/07/21 06:31:20;;;;;;;2.20;2.00;;;25.30;51.00;;;-147.20;100.00;58430.41;5114090;28;20054;-48
2021/07/21 06:33:48;;;;;;;2.35;2.00;;;25.30;51.00;;;-147.20;100.00;58430.41;5112921;28;20136;-49
2021/07/21 06:36:14;;;;;;;2.30;2.10;;;25.30;51.00;;;-147.20;100.00;58430.41;5112455;28;20048;-50
2021/07/21 06:38:41;;;;;;;2.25;2.05;;;25.30;51.00;;;-147.20;100.00;58430.41;5112932;28;20044;-47
2021/07/21 06:41:18;;;;;;;2.28;2.08;;;25.30;51.00;;;-147.20;100.00;58430.41;5112921;28;20066;-47
2021/07/21 06:43:43;;;;;;;2.40;2.20;;;25.30;51.00;;;-147.20;100.00;58430.41;5112264;28;20054;-45
2021/07/21 06:46:19;;;;;;;2.55;2.17;;;25.30;51.00;;;-147.20;100.00;58430.41;5096680;28;20053;-47
2021/07/21 06:48:53;;;;;;;2.88;2.30;;;25.30;51.00;;;-147.20;100.00;58430.41;5112654;28;20131;-48
2021/07/21 06:51:23;;;;;;;2.40;2.15;;;25.30;51.00;;;-147.20;100.00;58430.41;5093662;28;20055;-45
2021/07/21 06:53:50;;;;;;;2.45;1.90;;;25.30;51.00;;;-147.20;100.00;58430.41;5095629;28;20505;-46
2021/07/21 06:56:16;;;;;;;2.65;2.08;;;25.30;51.00;;;-147.20;100.00;58430.41;5113455;28;20058;-47
2021/07/21 06:58:58;;;;;;;1.88;1.77;;;25.30;51.00;;;-147.20;100.00;58430.41;5112327;28;20193;-47
2021/07/21 07:01:26;;;;;;;2.38;2.17;;;25.30;51.00;;;-147.20;100.00;58430.41;5095325;28;20054;-49
2021/07/21 07:04:21;;;;;;;2.60;2.40;;;25.30;50.90;;;-147.20;100.00;58430.41;5086836;28;20479;-50
2021/07/21 07:07:06;;;;;;;2.40;2.20;;;25.30;50.90;;;-147.20;100.00;58430.41;5113597;28;20460;-51
2021/07/21 07:09:50;;;;;;;2.65;2.45;;;25.30;50.90;;;-147.20;100.00;58430.41;5112531;28;20070;-50
2021/07/21 07:12:25;;;;;;;2.50;2.30;;;25.30;50.90;;;-147.20;100.00;58430.41;5112846;28;20127;-50
2021/07/21 07:14:51;;;;;;;2.30;2.10;;;25.30;50.90;;;-147.20;100.00;58430.41;5113143;28;20421;-50
2021/07/21 07:17:18;;;;;;;2.45;2.17;;;25.40;50.90;;;-147.20;100.00;58430.41;5113982;28;20130;-52
2021/07/21 07:19:44;;;;;;;2.88;2.20;;;25.30;50.90;;;-147.20;100.00;58430.41;5113711;28;20051;-51
2021/07/21 07:22:09;;;;;;;2.22;2.00;;;25.40;50.90;;;-147.20;100.00;58430.41;5111886;28;20476;-51
2021/07/21 07:24:35;;;;;;;2.83;2.22;;;25.40;50.90;;;-147.20;100.00;58430.41;5113469;28;20063;-51
2021/07/21 07:27:03;;;;;;;2.33;2.13;;;25.40;50.80;;;-147.20;100.00;58430.41;5094971;28;20051;-49
2021/07/21 07:29:29;;;;;;;3.13;2.55;;;25.40;50.80;;;-147.20;100.00;58430.41;5093100;28;20044;-50
2021/07/21 07:31:55;;;;;;;2.70;2.45;;;25.40;50.70;;;-147.20;100.00;58430.41;5113683;28;20050;-51
2021/07/21 07:34:21;;;;;;;2.70;2.22;;;25.50;50.70;;;-147.20;100.00;58430.41;5112995;28;20054;-49
2021/07/21 07:36:47;;;;;;;2.20;2.00;;;25.50;50.60;;;-147.20;100.00;58430.41;5094707;28;20473;-49
2021/07/21 07:39:14;;;;;;;2.92;2.17;;;25.50;50.50;;;-147.20;100.00;58430.41;5112901;28;20050;-48
2021/07/21 07:41:40;;;;;;;4.00;1.98;;;25.60;50.50;;;-147.20;100.00;58430.41;5113235;28;20044;-48
2021/07/21 07:44:07;;;;;;;2.35;2.15;;;25.60;50.40;;;-147.20;100.00;58430.41;5113279;28;20053;-47
2021/07/21 07:46:34;;;;;;;2.38;2.17;;;25.60;50.40;;;-147.20;100.00;58430.41;5111962;28;20078;-48
2021/07/21 07:49:00;;;;;;;2.78;2.40;;;25.60;50.40;;;-147.20;100.00;58430.41;5112971;28;20058;-48
2021/07/21 07:51:29;;;;;;;2.42;2.10;;;25.60;50.40;;;-147.20;100.00;58430.41;5112689;28;20055;-48
2021/07/21 07:53:56;;;;;;;2.70;2.50;;;25.60;50.50;;;-147.20;100.00;58430.41;5112788;28;20079;-48
2021/07/21 07:56:22;;;;;;;2.65;2.10;;;25.60;50.50;;;-147.20;100.00;58430.41;5111346;28;20432;-47
2021/07/21 07:58:48;;;;;;;2.72;2.35;;;25.60;50.50;;;-147.20;100.00;58430.41;5112711;28;20118;-51
2021/07/21 08:01:13;;;;;;;2.40;2.20;;;25.60;50.50;;;-147.20;100.00;58430.41;5094278;28;20058;-46
2021/07/21 08:03:39;;;;;;;2.47;2.28;;;25.60;50.50;;;-147.20;100.00;58430.41;5112768;28;20051;-48
2021/07/21 08:06:05;;;;;;;2.60;2.30;;;25.60;50.50;;;-147.20;100.00;58430.41;5113230;28;20550;-50
2021/07/21 08:08:32;;;;;;;2.50;2.30;;;25.60;50.50;;;-147.20;100.00;58430.41;5112596;28;20494;-51
2021/07/21 08:11:00;;;;;;;2.45;2.25;;;25.60;50.40;;;-147.20;100.00;58430.41;5113078;28;20547;-52
2021/07/21 08:13:26;;;;;;;2.33;2.13;;;25.60;50.40;;;-147.20;100.00;58430.41;5112544;28;20100;-48
2021/07/21 08:15:52;;;;;;;2.70;2.50;;;25.60;50.40;;;-147.20;100.00;58430.41;5112692;28;20051;-51
2021/07/21 08:18:18;;;;;;;2.50;2.30;;;25.60;50.30;;;-147.20;100.00;58430.41;5074897;28;20462;-52
2021/07/21 08:20:44;;;;;;;4.00;2.55;;;25.60;50.40;;;-147.20;100.00;58430.41;5112222;28;20059;-49
2021/07/21 08:23:11;;;;;;;2.60;2.40;;;25.60;50.40;;;-147.20;100.00;58430.41;5112414;28;20522;-49
2021/07/21 08:25:37;;;;;;;3.30;2.20;;;25.60;50.40;;;-147.20;100.00;58430.41;5112412;28;20039;-51
2021/07/21 08:28:04;;;;;;;2.78;2.30;;;25.60;50.30;;;-147.20;100.00;58430.41;5112238;28;20051;-51
2021/07/21 08:30:30;;;;;;;2.20;2.00;;;25.60;50.30;;;-147.20;100.00;58430.41;5112383;28;20494;-52
2021/07/21 08:32:58;;;;;;;2.63;2.42;;;25.60;50.30;;;-147.20;100.00;58430.41;5112242;28;20054;-52
2021/07/21 08:35:30;;;;;;;3.50;2.47;;;25.60;50.30;;;-147.20;100.00;58430.41;5112538;28;20059;-49
2021/07/21 08:38:01;;;;;;;2.67;2.30;;;25.70;50.30;;;-147.20;100.00;58430.41;5112557;28;20051;-49
2021/07/21 08:40:29;;;;;;;2.47;2.28;;;25.70;50.30;;;-147.20;100.00;58430.41;5112052;28;20105;-51
2021/07/21 08:42:55;;;;;;;2.72;2.53;;;25.70;50.20;;;-147.20;100.00;58430.41;5112095;28;20500;-54
2021/07/21 08:45:22;;;;;;;3.75;2.88;;;25.70;50.20;;;-147.20;100.00;58430.41;5112430;28;20403;-49
2021/07/21 08:47:48;;;;;;;2.63;2.13;;;25.70;50.10;;;-147.20;100.00;58430.41;5093846;28;20139;-48
2021/07/21 08:50:15;;;;;;;2.90;2.40;;;25.70;50.10;;;-147.20;100.00;58430.41;5112143;28;20512;-47
2021/07/21 08:52:41;;;;;;;2.38;2.05;;;25.70;50.10;;;-147.20;100.00;58430.41;5112380;28;20044;-47
2021/07/21 08:55:10;;;;;;;2.47;2.22;;;25.70;50.10;;;-147.20;100.00;58430.41;5112112;28;20048;-48
2021/07/21 08:57:37;;;;;;;3.05;2.70;;;25.80;50.20;;;-147.20;100.00;58430.41;5113056;28;20051;-47
2021/07/21 09:00:08;;;;;;;2.28;1.98;;;25.70;50.10;;;-147.20;100.00;58430.41;5097554;28;20048;-48
2021/07/21 09:02:37;;;;;;;2.58;2.10;;;25.80;50.10;;;-147.20;100.00;58430.41;5116100;28;20051;-50
2021/07/21 09:05:05;;;;;;;2.60;2.20;;;25.70;50.10;;;-147.20;100.00;58430.41;5115443;28;20055;-46
2021/07/21 09:07:31;;;;;;;2.50;2.30;;;25.70;50.10;;;-147.20;100.00;58430.41;5115157;28;20058;-52
2021/07/21 09:09:56;;;;;;;3.38;2.28;;;25.80;50.10;;;-147.20;100.00;58430.41;5096428;28;20044;-52
2021/07/21 09:12:23;;;;;;;3.03;2.13;;;25.80;50.00;;;-147.20;100.00;58430.41;5115841;28;20048;-47
2021/07/21 09:14:48;;;;;;;2.95;2.65;;;25.80;50.00;;;-147.20;100.00;58430.41;5097235;28;20043;-46
2021/07/21 09:17:21;;;;;;;2.45;2.25;;;25.80;49.90;;;-147.20;100.00;58430.41;5115312;28;20047;-53
2021/07/21 09:19:49;;;;;;;6.15;2.42;;;25.80;49.90;;;-147.20;100.00;58430.41;5110195;28;20138;-53
2021/07/21 09:22:28;;;;;;;2.88;2.55;;;25.80;49.90;;;-147.20;100.00;58430.41;5115188;28;20051;-47
2021/07/21 09:25:18;;;;;;;3.13;2.47;;;25.80;50.30;;;-147.20;100.00;58430.41;5115091;28;20048;-50
2021/07/21 09:27:47;;;;;;;2.55;2.28;;;25.90;49.80;;;-147.20;100.00;58430.41;5114744;28;20051;-50
2021/07/21 09:30:19;;;;;;;3.03;2.40;;;25.90;49.80;;;-147.20;100.00;58430.41;5113916;28;20179;-50
2021/07/21 09:32:59;;;;;;;2.40;2.20;;;26.00;49.80;;;-147.20;100.00;58430.41;5115615;28;20048;-49
2021/07/21 09:35:32;;;;;;;2.70;2.33;;;26.00;49.80;;;-147.20;100.00;58430.41;5114912;28;20084;-52
2021/07/21 09:38:16;;;;;;;2.53;2.33;;;26.00;49.70;;;-147.20;100.00;58430.41;5114769;28;20052;-48
2021/07/21 09:40:46;;;;;;;2.33;2.13;;;26.00;49.60;;;-147.20;100.00;58430.41;5115062;28;20063;-46
2021/07/21 09:43:23;;;;;;;3.13;2.55;;;26.00;49.60;;;-147.20;100.00;58430.41;5096108;28;20171;-53
2021/07/21 09:45:50;;;;;;;3.17;2.53;;;26.00;49.50;;;-147.20;100.00;58430.41;5096512;28;20052;-51
2021/07/21 09:48:18;;;;;;;2.55;2.35;;;26.00;49.50;;;-147.20;100.00;58430.41;5112632;28;20177;-48
2021/07/21 09:50:48;;;;;;;2.70;2.40;;;26.00;49.50;;;-147.20;100.00;58430.41;5114648;28;20043;-51
2021/07/21 09:53:15;;;;;;;3.77;2.30;;;26.00;49.50;;;-147.20;100.00;58430.41;5114509;28;20434;-49
2021/07/21 09:55:45;;;;;;;2.90;2.40;;;26.00;49.50;;;-147.20;100.00;58430.41;5114518;28;20620;-47
2021/07/21 09:58:19;;;;;;;2.53;2.33;;;26.10;49.50;;;-147.20;100.00;58430.41;5096732;28;20051;-46
2021/07/21 10:00:47;;;;;;;2.63;2.28;;;26.10;49.50;;;-147.20;100.00;58430.41;5114488;28;20047;-46
2021/07/21 10:03:22;;;;;;;3.30;2.55;;;26.10;49.40;;;-147.20;100.00;58430.41;5114479;28;20051;-49
2021/07/21 10:06:09;;;;;;;2.97;2.40;;;26.00;49.40;;;-147.20;100.00;58430.41;5112228;28;20054;-45
2021/07/21 10:08:47;;;;;;;2.30;2.10;;;26.00;49.50;;;-147.20;100.00;58430.41;5093360;28;20055;-47
2021/07/21 10:11:32;;;;;;;3.42;2.47;;;26.00;49.50;;;-147.20;100.00;58430.41;5114637;28;20039;-48
2021/07/21 10:14:03;;;;;;;3.08;2.78;;;26.00;49.60;;;-147.20;100.00;58430.41;5114754;28;20052;-47
2021/07/21 10:16:41;;;;;;;2.65;2.20;;;26.00;49.60;;;-147.20;100.00;58430.41;5114264;28;20399;-48
2021/07/21 10:19:10;;;;;;;2.92;2.40;;;26.00;49.60;;;-147.20;100.00;58430.41;5096279;28;20082;-47
2021/07/21 10:21:38;;;;;;;2.75;2.20;;;26.00;49.60;;;-147.20;100.00;58430.41;5114249;28;20100;-47
2021/07/21 10:24:06;;;;;;;3.80;2.50;;;26.00;49.70;;;-147.20;100.00;58430.41;5114225;28;20048;-47
2021/07/21 10:26:33;;;;;;;2.65;2.33;;;26.00;49.60;;;-147.20;100.00;58430.41;5114634;28;20044;-48
2021/07/21 10:29:00;;;;;;;2.38;2.17;;;26.00;49.60;;;-147.20;100.00;58430.41;5114183;28;20399;-49